EW7175 Weather Reports


Display with metric or nautical units.
time (UTC)temp
F
wind
direction
speed
MPH
gust
MPH
rain 1hr
in
rain 24hr
in
rain mn
in
humidity
%
barometer
mb
20210730113051 77 167 0.0 0.0 0.00 0.00 0.00 92 1016.3
20210730111619 77 167 0.0 0.0 0.00 0.00 0.00 92 1016.1
20210730110058 77 167 0.0 0.0 0.00 0.00 0.00 92 1016.0
20210730104621 77 167 0.0 0.0 0.00 0.00 0.00 92 1015.8
20210730103043 77 167 0.0 0.0 0.00 0.00 0.00 92 1015.6
20210730101549 77 167 0.0 0.0 0.00 0.00 0.00 92 1015.7
20210730100050 77 167 0.0 0.0 0.00 0.00 0.00 92 1015.5
20210730094551 77 167 0.0 0.0 0.00 0.00 0.00 92 1015.5
20210730093108 77 167 0.0 0.0 0.00 0.00 0.00 92 1015.5
20210730091606 77 167 0.0 0.0 0.00 0.00 0.00 92 1015.4
20210730090122 77 167 0.0 0.0 0.00 0.00 0.00 92 1015.1
20210730084607 78 167 0.0 0.0 0.00 0.00 0.00 92 1015.1
20210730083053 78 167 0.0 0.0 0.00 0.00 0.00 92 1015.1
20210730081547 78 167 0.0 0.0 0.00 0.00 0.00 91 1015.1
20210730080029 78 167 0.0 0.0 0.00 0.00 0.00 91 1015.0
20210730074527 78 167 0.0 0.0 0.00 0.00 0.00 91 1015.0
20210730073033 79 167 0.0 0.0 0.00 0.00 0.00 91 1014.9
20210730071523 79 167 0.0 0.0 0.00 0.00 0.00 90 1014.9
20210730070047 79 167 0.0 0.0 0.00 0.00 0.00 90 1015.1
20210730064614 79 167 0.0 0.0 0.00 0.00 0.00 90 1015.0
20210730063053 79 167 0.0 0.0 0.00 0.00 0.00 90 1014.9
20210730061521 79 167 0.0 0.0 0.00 0.00 0.00 90 1014.8
20210730060011 80 167 0.0 0.0 0.00 0.00 0.00 89 1014.9
20210730054527 80 167 0.0 0.0 0.00 0.00 0.00 89 1014.8
20210730053008 80 167 0.0 0.0 0.00 0.00 0.00 89 1015.2
20210730051519 80 167 0.0 0.0 0.00 0.00 0.00 88 1015.0
20210730050013 80 167 0.0 0.0 0.00 0.00 0.00 88 1015.0
20210730044511 80 167 0.0 0.0 0.00 0.00 0.00 88 1015.1
20210730043015 81 167 0.0 0.0 0.00 0.00 0.00 88 1014.9
20210730041520 81 167 0.0 0.0 0.00 0.00 0.00 87 1015.1
20210730040004 81 167 0.0 0.0 0.00 0.00 0.00 88 1015.2
20210730034514 82 167 0.0 0.0 0.00 0.00 0.00 86 1015.2
20210730033003 82 167 0.0 0.0 0.00 0.00 0.00 84 1015.1
20210730031501 82 167 0.0 0.0 0.00 0.00 0.00 83 1015.0
20210730030001 82 167 0.0 0.0 0.00 0.00 0.00 81 1015.0
20210730024651 83 167 0.0 0.0 0.00 0.00 0.00 80 1014.8
20210730023215 83 167 0.0 0.0 0.00 0.00 0.00 79 1014.8
20210730021754 84 167 0.0 0.0 0.00 0.00 0.00 77 1014.6
20210730020151 84 167 0.0 0.0 0.00 0.00 0.00 76 1014.4
20210730014631 85 167 0.0 0.0 0.00 0.00 0.00 75 1014.4
20210730013124 85 167 0.0 2.0 0.00 0.00 0.00 74 1014.1
20210730011700 85 167 0.0 2.0 0.00 0.00 0.00 73 1014.2
20210730010200 86 167 0.0 2.0 0.00 0.00 0.00 72 1014.1
20210730004633 86 167 0.0 1.0 0.00 0.00 0.00 72 1014.0
20210730003125 87 167 0.0 2.0 0.00 0.00 0.00 71 1013.9
20210730001608 87 69 1.0 4.0 0.00 0.00 0.00 70 1013.8
20210730000241 88 202 1.0 4.0 0.00 0.00 0.00 69 1013.5
20210729234741 89 216 0.0 5.0 0.00 0.00 0.00 66 1013.4
20210729233157 90 155 0.0 3.0 0.00 0.00 0.00 60 1013.4
20210729231626 91 182 0.0 2.0 0.00 0.00 0.00 58 1013.5
20210729230107 93 148 0.0 4.0 0.00 0.00 0.00 56 1013.5
20210729224618 93 161 0.0 3.0 0.00 0.00 0.00 57 1013.4
20210729223147 92 236 0.0 2.0 0.00 0.00 0.00 58 1013.7
20210729221607 92 130 0.0 4.0 0.00 0.00 0.00 56 1013.9
20210729220117 94 50 0.0 2.0 0.00 0.00 0.00 54 1014.0
20210729214606 95 50 1.0 3.0 0.00 0.00 0.00 51 1014.1
20210729213154 95 129 1.0 4.0 0.00 0.00 0.00 50 1014.2
20210729211619 96 88 0.0 6.0 0.00 0.00 0.00 49 1014.2
20210729210105 95 130 0.0 4.0 0.00 0.00 0.00 51 1014.3
20210729204605 96 84 0.0 4.0 0.00 0.00 0.00 50 1014.5
20210729203138 95 86 1.0 3.0 0.00 0.00 0.00 52 1014.7
20210729201650 96 84 2.0 5.0 0.00 0.00 0.00 50 1014.7
20210729200141 97 67 1.0 6.0 0.00 0.00 0.00 49 1014.7
20210729194616 95 145 0.0 6.0 0.00 0.00 0.00 50 1014.7
20210729193109 96 43 1.0 3.0 0.00 0.00 0.00 51 1014.8
20210729191546 96 34 1.0 6.0 0.00 0.00 0.00 51 1014.8
20210729190208 96 51 2.0 10.0 0.00 0.00 0.00 49 1014.9
20210729184625 95 124 1.0 6.0 0.00 0.00 0.00 51 1015.0
20210729183106 94 44 1.0 3.0 0.00 0.00 0.00 51 1015.0
20210729181609 94 49 4.0 11.0 0.00 0.00 0.00 53 1015.5
20210729180127 93 9 3.0 6.0 0.00 0.00 0.00 57 1015.6
20210729174540 93 146 1.0 4.0 0.00 0.00 0.00 59 1015.8
20210729173049 92 100 3.0 8.0 0.00 0.00 0.00 59 1016.1
20210729171538 92 46 1.0 5.0 0.00 0.00 0.00 60 1016.3
20210729170049 92 360 2.0 5.0 0.00 0.00 0.00 61 1016.4
20210729164531 91 47 2.0 9.0 0.00 0.00 0.00 63 1016.4
20210729163047 89 36 1.0 7.0 0.00 0.00 0.00 67 1016.5
20210729161514 90 71 1.0 6.0 0.00 0.00 0.00 66 1016.5
20210729160014 90 28 3.0 6.0 0.00 0.00 0.00 65 1016.5
20210729154535 89 5 1.0 6.0 0.00 0.00 0.00 65 1016.6
20210729153004 88 34 1.0 4.0 0.00 0.00 0.00 67 1016.6
20210729151648 87 355 2.0 6.0 0.00 0.00 0.00 72 1016.7
20210729150132 85 314 3.0 6.0 0.00 0.00 0.00 74 1016.7
20210729144821 85 291 2.0 4.0 0.00 0.00 0.00 76 1016.8
20210729143131 84 24 1.0 4.0 0.00 0.00 0.00 80 1016.7
20210729141622 83 301 2.0 5.0 0.00 0.00 0.00 81 1016.6
20210729140253 83 22 2.0 6.0 0.00 0.00 0.00 83 1016.7
20210729134619 82 355 2.0 5.0 0.00 0.00 0.00 85 1016.5
20210729133130 82 5 1.0 5.0 0.00 0.00 0.00 86 1016.5
20210729131626 81 355 2.0 4.0 0.00 0.00 0.00 88 1016.3
20210729130212 80 345 1.0 3.0 0.00 0.00 0.00 90 1016.0
20210729124636 79 345 0.0 1.0 0.00 0.00 0.00 91 1015.8
20210729123058 79 345 0.0 2.0 0.00 0.00 0.00 91 1015.8
20210729121548 79 345 0.0 2.0 0.00 0.00 0.00 92 1015.5
20210729120033 79 345 0.0 0.0 0.00 0.00 0.00 92 1015.3
20210729114544 79 345 0.0 0.0 0.00 0.00 0.00 92 1015.1